createdAt,value
2018-11-07T00:01:08.719Z,46.97
2018-11-07T00:03:39.592Z,47.47
2018-11-07T00:06:10.390Z,51.17
2018-11-07T00:08:41.461Z,50.73
2018-11-07T00:11:12.774Z,47.03
2018-11-07T00:13:43.664Z,47.67
2018-11-07T00:16:14.813Z,45.63
2018-11-07T00:18:45.966Z,47.83
2018-11-07T00:21:16.898Z,45.07
2018-11-07T00:23:48.162Z,47.57
2018-11-07T00:26:19.362Z,46.43
2018-11-07T00:28:50.210Z,47.40
2018-11-07T00:31:21.130Z,43.13
2018-11-07T00:33:52.091Z,44.87
2018-11-07T00:36:22.973Z,47.83
2018-11-07T00:38:53.777Z,41.40
2018-11-07T00:41:24.658Z,49.13
2018-11-07T00:43:55.509Z,49.37
2018-11-07T00:46:26.242Z,49.40
2018-11-07T00:48:57.091Z,40.87
2018-11-07T00:51:28.515Z,44.67
2018-11-07T00:53:59.441Z,41.23
2018-11-07T00:56:30.113Z,40.17
2018-11-07T00:59:00.923Z,44.63
2018-11-07T01:01:31.981Z,41.97
2018-11-07T01:04:03.081Z,39.57
2018-11-07T01:06:34.457Z,40.90
2018-11-07T01:09:07.095Z,44.43
2018-11-07T01:11:37.986Z,36.90
2018-11-07T01:14:09.202Z,39.93
2018-11-07T01:16:40.204Z,37.10
2018-11-07T01:19:11.129Z,43.83
2018-11-07T01:21:42.000Z,38.33
2018-11-07T01:24:12.739Z,37.90
2018-11-07T01:26:43.496Z,39.23
2018-11-07T01:29:14.306Z,34.33
2018-11-07T01:31:45.019Z,39.33
2018-11-07T01:34:15.884Z,37.23
2018-11-07T01:36:46.643Z,40.53
2018-11-07T01:39:17.375Z,36.23
2018-11-07T01:41:48.160Z,39.10
2018-11-07T01:44:18.769Z,38.53
2018-11-07T01:46:49.473Z,37.77
2018-11-07T01:49:20.268Z,36.13
2018-11-07T01:51:51.050Z,39.80
2018-11-07T01:54:21.924Z,34.40
2018-11-07T01:56:52.723Z,37.40
2018-11-07T01:59:23.535Z,35.63
2018-11-07T02:01:54.460Z,34.60
2018-11-07T02:04:25.189Z,36.07
2018-11-07T02:06:55.928Z,35.17
2018-11-07T02:09:26.690Z,34.83
2018-11-07T02:11:57.640Z,33.17
2018-11-07T02:14:29.305Z,35.67
2018-11-07T02:17:00.024Z,35.20
2018-11-07T02:19:30.854Z,36.70
2018-11-07T02:22:01.604Z,34.73
2018-11-07T02:24:32.339Z,35.90
2018-11-07T02:27:03.224Z,34.57
2018-11-07T02:29:34.139Z,33.40
2018-11-07T02:32:05.117Z,31.73
2018-11-07T02:34:35.927Z,33.43
2018-11-07T02:37:06.982Z,35.20
2018-11-07T02:39:37.705Z,33.57
2018-11-07T02:42:08.503Z,32.77
2018-11-07T02:44:39.397Z,35.47
2018-11-07T02:47:10.586Z,31.07
2018-11-07T02:49:41.274Z,31.70
2018-11-07T02:52:12.033Z,31.40
2018-11-07T02:54:42.878Z,31.07
2018-11-07T02:57:13.551Z,35.27
2018-11-07T02:59:44.406Z,33.90
2018-11-07T03:02:15.194Z,32.70
2018-11-07T03:04:46.146Z,34.90
2018-11-07T03:07:17.113Z,30.87
2018-11-07T03:09:47.892Z,32.53
2018-11-07T03:12:19.001Z,33.97
2018-11-07T03:14:49.798Z,33.03
2018-11-07T03:17:20.683Z,39.60
2018-11-07T03:19:51.522Z,33.67
2018-11-07T03:22:22.233Z,33.37
2018-11-07T03:24:53.084Z,33.57
2018-11-07T03:27:24.389Z,35.60
2018-11-07T03:29:55.309Z,33.07
2018-11-07T03:32:26.019Z,35.80
2018-11-07T03:34:57.222Z,36.57
2018-11-07T03:37:28.025Z,32.97
2018-11-07T03:39:59.090Z,34.07
2018-11-07T03:42:29.965Z,35.47
2018-11-07T03:45:00.714Z,36.73
2018-11-07T03:47:31.611Z,36.07
2018-11-07T03:50:02.478Z,36.73
2018-11-07T03:52:33.316Z,35.27
2018-11-07T03:55:04.319Z,35.63
2018-11-07T03:57:35.182Z,35.23
2018-11-07T04:00:08.320Z,29.50
2018-11-07T04:02:39.521Z,32.67
2018-11-07T04:05:11.802Z,30.77
2018-11-07T04:07:43.625Z,35.97
2018-11-07T04:10:14.335Z,34.37
2018-11-07T04:12:45.484Z,34.63
2018-11-07T04:15:16.346Z,38.13
2018-11-07T04:17:47.263Z,36.03
2018-11-07T04:20:18.154Z,33.67
2018-11-07T04:22:49.046Z,39.27
2018-11-07T04:25:20.341Z,35.07
2018-11-07T04:27:51.337Z,43.37
2018-11-07T04:30:22.187Z,39.17
2018-11-07T04:32:53.022Z,38.27
2018-11-07T04:35:23.843Z,35.03
2018-11-07T04:37:54.725Z,38.90
2018-11-07T04:40:26.052Z,36.23
2018-11-07T04:42:57.300Z,32.70
2018-11-07T04:45:28.266Z,36.43
2018-11-07T04:47:59.121Z,36.43
2018-11-07T04:50:30.184Z,42.97
2018-11-07T04:53:01.057Z,33.00
2018-11-07T04:55:32.398Z,36.03
2018-11-07T04:58:03.267Z,35.50
2018-11-07T05:00:34.380Z,33.07
2018-11-07T05:03:05.399Z,27.23
2018-11-07T05:05:36.359Z,39.10
2018-11-07T05:08:07.457Z,35.40
2018-11-07T05:10:38.412Z,32.97
2018-11-07T05:13:09.374Z,35.07
2018-11-07T05:15:40.319Z,34.60
2018-11-07T05:18:11.340Z,37.13
2018-11-07T05:20:42.278Z,33.73
2018-11-07T05:23:13.303Z,36.10
2018-11-07T05:25:44.180Z,31.30
2018-11-07T05:28:15.212Z,35.57
2018-11-07T05:30:46.167Z,33.83
2018-11-07T05:33:17.125Z,36.67
2018-11-07T05:35:48.016Z,33.33
2018-11-07T05:38:18.903Z,33.43
2018-11-07T05:40:49.868Z,31.47
2018-11-07T05:43:20.851Z,30.23
2018-11-07T05:45:52.237Z,29.83
2018-11-07T05:48:23.099Z,29.83
2018-11-07T05:50:54.188Z,29.20
2018-11-07T05:53:25.237Z,29.10
2018-11-07T05:55:56.240Z,29.93
2018-11-07T05:58:27.255Z,38.17
2018-11-07T06:00:58.310Z,30.60
2018-11-07T06:06:00.496Z,35.77
2018-11-07T06:08:32.556Z,26.47
2018-11-07T06:11:04.584Z,28.77
2018-11-07T06:13:36.458Z,30.67
2018-11-07T06:16:08.463Z,31.13
2018-11-07T06:18:40.623Z,26.73
2018-11-07T06:21:12.624Z,29.07
2018-11-07T06:23:44.697Z,30.97
2018-11-07T06:26:16.933Z,30.83
2018-11-07T06:28:49.623Z,29.87
2018-11-07T06:31:21.571Z,29.13
2018-11-07T06:33:54.542Z,33.03
2018-11-07T06:36:26.523Z,29.53
2018-11-07T06:38:58.873Z,30.73
2018-11-07T06:41:30.762Z,32.17
2018-11-07T06:44:03.497Z,32.77
2018-11-07T06:46:35.455Z,55.07
2018-11-07T06:49:07.716Z,40.23
2018-11-07T06:51:39.528Z,39.73
2018-11-07T06:54:11.507Z,31.67
2018-11-07T06:56:43.747Z,33.67
2018-11-07T06:59:15.672Z,36.03
2018-11-07T07:01:48.698Z,37.67
2018-11-07T07:04:20.852Z,37.07
2018-11-07T07:06:52.994Z,40.77
2018-11-07T07:09:24.799Z,46.10
2018-11-07T07:11:57.918Z,41.23
2018-11-07T07:14:30.607Z,36.13
2018-11-07T07:17:02.772Z,39.83
2018-11-07T07:19:35.201Z,35.87
2018-11-07T07:22:07.569Z,31.13
2018-11-07T07:24:39.795Z,34.37
2018-11-07T07:27:11.793Z,33.70
2018-11-07T07:29:44.000Z,30.53
2018-11-07T07:32:16.201Z,34.50
2018-11-07T07:34:48.195Z,35.27
2018-11-07T07:37:20.297Z,33.37
2018-11-07T07:39:52.454Z,31.63
2018-11-07T07:42:24.668Z,35.63
2018-11-07T07:44:56.545Z,30.63
2018-11-07T07:47:28.724Z,31.43
2018-11-07T07:50:00.982Z,34.50
2018-11-07T07:52:33.555Z,33.63
2018-11-07T07:55:06.035Z,32.53
2018-11-07T07:57:38.960Z,33.73
2018-11-07T08:00:17.111Z,30.40
2018-11-07T08:02:52.339Z,28.77
2018-11-07T08:05:24.356Z,36.83
2018-11-07T08:07:56.412Z,36.97
2018-11-07T08:10:28.442Z,29.83
2018-11-07T08:13:00.842Z,28.03
2018-11-07T08:15:32.764Z,29.63
2018-11-07T08:18:04.901Z,29.20
2018-11-07T08:20:36.896Z,31.60
2018-11-07T08:23:09.159Z,28.80
2018-11-07T08:25:41.162Z,31.67
2018-11-07T08:28:13.163Z,31.60
2018-11-07T08:30:46.444Z,34.70
2018-11-07T08:33:18.933Z,32.33
2018-11-07T08:35:51.035Z,34.17
2018-11-07T08:38:23.107Z,30.57
2018-11-07T08:40:55.025Z,31.53
2018-11-07T08:43:27.277Z,32.03
2018-11-07T08:45:59.142Z,34.33
2018-11-07T08:48:31.063Z,35.77
2018-11-07T08:51:03.158Z,36.70
2018-11-07T08:53:35.307Z,40.53
2018-11-07T08:56:07.272Z,40.33
2018-11-07T08:58:39.903Z,38.43
2018-11-07T09:01:12.262Z,40.00
2018-11-07T09:03:44.634Z,39.33
2018-11-07T09:06:16.683Z,39.40
2018-11-07T09:08:49.284Z,35.77
2018-11-07T09:11:22.168Z,37.00
2018-11-07T09:13:54.254Z,36.13
2018-11-07T09:16:26.494Z,37.33
2018-11-07T09:18:59.545Z,51.37
2018-11-07T09:21:31.694Z,40.43
2018-11-07T09:24:03.760Z,34.30
2018-11-07T09:26:35.725Z,34.20
2018-11-07T09:29:07.983Z,36.67
2018-11-07T09:31:40.062Z,32.33
2018-11-07T09:34:12.045Z,38.10
2018-11-07T09:36:45.021Z,30.97
2018-11-07T09:39:17.329Z,28.07
2018-11-07T09:41:49.592Z,27.67
2018-11-07T09:44:21.722Z,32.60
2018-11-07T09:46:53.903Z,34.80
2018-11-07T09:49:27.310Z,31.73
2018-11-07T09:51:59.561Z,24.97
2018-11-07T09:54:32.548Z,26.17
2018-11-07T09:57:04.568Z,32.47
2018-11-07T09:59:37.836Z,27.80
2018-11-07T10:02:09.929Z,24.50
2018-11-07T10:04:42.037Z,29.60
2018-11-07T10:07:13.837Z,27.50
2018-11-07T10:09:46.170Z,28.63
2018-11-07T10:12:18.266Z,26.37
2018-11-07T10:14:50.451Z,27.73
2018-11-07T10:17:22.201Z,24.80
2018-11-07T10:19:54.526Z,30.00
2018-11-07T10:22:27.980Z,27.57
2018-11-07T10:25:00.572Z,26.17
2018-11-07T10:27:33.025Z,23.33
2018-11-07T10:30:06.519Z,27.83
2018-11-07T10:32:38.061Z,23.97
2018-11-07T10:35:11.049Z,26.73
2018-11-07T10:37:43.403Z,30.50
2018-11-07T10:40:18.351Z,26.93
2018-11-07T10:42:50.388Z,25.70
2018-11-07T10:45:23.217Z,25.60
2018-11-07T10:47:55.680Z,27.53
2018-11-07T10:50:28.017Z,27.70
2018-11-07T10:52:59.954Z,28.13
2018-11-07T10:55:32.282Z,44.83
2018-11-07T10:58:05.230Z,32.23
2018-11-07T11:00:41.908Z,23.03
2018-11-07T11:03:19.104Z,29.10
2018-11-07T11:05:52.098Z,25.80
2018-11-07T11:08:24.182Z,24.70
2018-11-07T11:10:56.114Z,24.43
2018-11-07T11:13:28.139Z,24.73
2018-11-07T11:16:00.157Z,31.03
2018-11-07T11:18:32.981Z,27.40
2018-11-07T11:21:05.497Z,29.03
2018-11-07T11:23:37.640Z,36.37
2018-11-07T11:26:09.747Z,26.97
2018-11-07T11:28:41.910Z,23.93
2018-11-07T11:31:13.921Z,28.17
2018-11-07T11:33:46.218Z,32.53
2018-11-07T11:36:18.481Z,25.20
2018-11-07T11:38:50.662Z,30.97
2018-11-07T11:41:22.761Z,24.03
2018-11-07T11:43:54.993Z,20.90
2018-11-07T11:46:27.051Z,25.93
2018-11-07T11:48:59.358Z,24.13
2018-11-07T11:51:31.310Z,22.63
2018-11-07T11:54:03.389Z,37.37
2018-11-07T11:56:35.239Z,22.00
2018-11-07T11:59:07.473Z,26.37
2018-11-07T12:01:39.272Z,25.43
2018-11-07T12:04:11.056Z,24.67
2018-11-07T12:06:42.998Z,24.67
2018-11-07T12:09:15.055Z,23.20
2018-11-07T12:11:47.129Z,26.03
2018-11-07T12:14:19.351Z,22.73
2018-11-07T12:16:51.505Z,19.20
2018-11-07T12:19:23.381Z,23.30
2018-11-07T12:21:55.383Z,22.53
2018-11-07T12:24:27.473Z,22.50
2018-11-07T12:27:03.291Z,23.70
2018-11-07T12:29:35.573Z,25.13
2018-11-07T12:32:08.039Z,21.13
2018-11-07T12:34:39.871Z,19.10
2018-11-07T12:37:12.162Z,23.47
2018-11-07T12:39:44.224Z,26.90
2018-11-07T12:42:16.159Z,22.67
2018-11-07T12:44:48.401Z,20.83
2018-11-07T12:47:20.792Z,25.30
2018-11-07T12:49:53.144Z,21.93
2018-11-07T12:52:25.570Z,17.83
2018-11-07T12:54:57.588Z,21.87
2018-11-07T12:57:29.750Z,20.30
2018-11-07T13:00:02.391Z,22.17
2018-11-07T13:02:34.688Z,17.17
2018-11-07T13:05:07.725Z,21.40
2018-11-07T13:07:40.341Z,22.93
2018-11-07T13:10:16.574Z,23.13
2018-11-07T13:12:49.447Z,17.23
2018-11-07T13:15:21.904Z,19.77
2018-11-07T13:17:54.465Z,19.83
2018-11-07T13:20:27.107Z,20.70
2018-11-07T13:22:59.328Z,25.80
2018-11-07T13:25:31.776Z,19.97
2018-11-07T13:28:03.973Z,17.97
2018-11-07T13:30:36.589Z,21.20
2018-11-07T13:33:08.954Z,17.70
2018-11-07T13:35:41.115Z,19.07
2018-11-07T13:38:13.748Z,17.87
2018-11-07T13:40:45.897Z,22.17
2018-11-07T13:43:17.901Z,25.37
2018-11-07T13:45:50.254Z,21.27
2018-11-07T13:48:23.125Z,17.67
2018-11-07T13:50:55.059Z,18.77
2018-11-07T13:53:27.221Z,21.43
2018-11-07T13:55:59.273Z,25.53
2018-11-07T13:58:31.375Z,20.63
2018-11-07T14:01:03.821Z,18.00
2018-11-07T14:03:36.647Z,20.73
2018-11-07T14:06:09.057Z,22.03
2018-11-07T14:08:41.576Z,28.17
2018-11-07T14:11:13.745Z,19.57
2018-11-07T14:13:45.871Z,21.80
2018-11-07T14:16:17.995Z,24.23
2018-11-07T14:18:50.319Z,26.00
2018-11-07T14:21:22.681Z,20.03
2018-11-07T14:23:54.867Z,23.90
2018-11-07T14:26:27.217Z,27.87
2018-11-07T14:29:00.388Z,23.37
2018-11-07T14:31:32.499Z,21.30
2018-11-07T14:34:04.993Z,27.73
2018-11-07T14:36:36.824Z,25.20
2018-11-07T14:39:10.258Z,25.80
2018-11-07T14:41:42.890Z,23.40
2018-11-07T14:44:15.015Z,22.37
2018-11-07T14:46:48.305Z,22.47
2018-11-07T14:49:20.423Z,21.37
2018-11-07T14:51:52.749Z,26.23
2018-11-07T14:54:24.890Z,24.57
2018-11-07T14:56:57.253Z,25.83
2018-11-07T14:59:29.020Z,23.60
2018-11-07T15:02:01.008Z,25.93
2018-11-07T15:04:33.452Z,39.97
2018-11-07T15:07:05.405Z,27.50
2018-11-07T15:09:37.288Z,30.27
2018-11-07T15:12:10.302Z,30.03
2018-11-07T15:14:42.443Z,34.60
2018-11-07T15:17:14.268Z,31.63
2018-11-07T15:19:47.146Z,30.23
2018-11-07T15:22:19.632Z,29.60
2018-11-07T15:24:51.786Z,30.97
2018-11-07T15:27:23.825Z,31.27
2018-11-07T15:29:56.524Z,25.83
2018-11-07T15:32:29.448Z,33.37
2018-11-07T15:35:01.534Z,31.00
2018-11-07T15:37:33.440Z,28.13
2018-11-07T15:40:06.015Z,35.53
2018-11-07T15:42:38.504Z,44.40
2018-11-07T15:45:13.255Z,38.13
2018-11-07T15:47:45.349Z,37.53
2018-11-07T15:50:22.932Z,34.33
2018-11-07T15:52:55.408Z,32.20
2018-11-07T15:55:27.400Z,33.93
2018-11-07T15:57:59.778Z,40.57
2018-11-07T16:00:32.297Z,28.20
2018-11-07T16:03:04.748Z,29.47
2018-11-07T16:05:36.672Z,32.77
2018-11-07T16:08:09.815Z,34.20
2018-11-07T16:10:41.852Z,39.40
2018-11-07T16:13:14.045Z,44.10
2018-11-07T16:15:46.353Z,41.83
2018-11-07T16:18:18.231Z,47.80
2018-11-07T16:20:51.400Z,56.73
2018-11-07T16:23:23.624Z,49.00
2018-11-07T16:25:56.052Z,45.90
2018-11-07T16:28:28.048Z,41.07
2018-11-07T16:30:59.925Z,41.90
2018-11-07T16:33:32.506Z,46.37
2018-11-07T16:36:04.661Z,45.53
2018-11-07T16:38:36.956Z,38.87
2018-11-07T16:41:09.947Z,34.60
2018-11-07T16:43:41.927Z,34.63
2018-11-07T16:46:14.927Z,37.07
2018-11-07T16:48:47.146Z,35.93
2018-11-07T16:51:19.536Z,40.67
2018-11-07T16:53:51.763Z,31.60
2018-11-07T16:56:23.798Z,36.70
2018-11-07T16:58:56.061Z,48.57
2018-11-07T17:01:28.175Z,62.17
2018-11-07T17:04:00.855Z,48.90
2018-11-07T17:06:33.267Z,85.20
2018-11-07T17:09:06.832Z,81.03
2018-11-07T17:11:39.205Z,54.43
2018-11-07T17:14:11.992Z,51.13
2018-11-07T17:16:44.262Z,43.13
2018-11-07T17:19:16.370Z,40.57
2018-11-07T17:21:48.298Z,37.50
2018-11-07T17:24:20.635Z,41.37
2018-11-07T17:26:52.973Z,40.57
2018-11-07T17:29:25.110Z,41.50
2018-11-07T17:31:57.372Z,42.23
2018-11-07T17:34:29.488Z,43.63
2018-11-07T17:37:01.526Z,50.93
2018-11-07T17:39:34.149Z,37.27
2018-11-07T17:42:06.119Z,37.40
2018-11-07T17:44:38.601Z,40.33
2018-11-07T17:47:11.983Z,37.10
2018-11-07T17:49:44.812Z,35.47
2018-11-07T17:52:16.935Z,41.50
2018-11-07T17:54:50.604Z,39.30
2018-11-07T17:57:22.914Z,36.07
2018-11-07T17:59:55.028Z,38.50
2018-11-07T18:02:27.063Z,42.50
2018-11-07T18:04:58.888Z,44.40
2018-11-07T18:07:31.111Z,47.97
2018-11-07T18:10:03.859Z,43.70
2018-11-07T18:12:37.121Z,41.33
2018-11-07T18:15:11.067Z,42.93
2018-11-07T18:17:43.241Z,44.57
2018-11-07T18:20:16.209Z,44.33
2018-11-07T18:22:48.335Z,45.40
2018-11-07T18:25:20.752Z,47.50
2018-11-07T18:27:52.781Z,41.57
2018-11-07T18:30:25.904Z,45.97
2018-11-07T18:32:57.884Z,41.00
2018-11-07T18:35:30.465Z,49.27
2018-11-07T18:40:46.445Z,44.70
2018-11-07T18:43:18.884Z,47.37
2018-11-07T18:45:51.050Z,46.90
2018-11-07T18:48:24.637Z,47.57
2018-11-07T18:50:56.665Z,49.03
2018-11-07T18:53:28.979Z,51.77
2018-11-07T18:56:01.428Z,44.17
2018-11-07T18:58:42.144Z,43.47
2018-11-07T19:01:18.540Z,41.80
2018-11-07T19:03:50.768Z,38.03
2018-11-07T19:06:23.716Z,41.57
2018-11-07T19:08:56.556Z,37.07
2018-11-07T19:11:28.718Z,44.80
2018-11-07T19:14:01.284Z,44.13
2018-11-07T19:16:34.067Z,44.80
2018-11-07T19:19:06.742Z,43.23
2018-11-07T19:21:38.837Z,48.23
2018-11-07T19:24:11.833Z,47.70
2018-11-07T19:26:44.448Z,43.67
2018-11-07T19:29:17.695Z,46.40
2018-11-07T19:31:50.173Z,44.47
2018-11-07T19:34:22.215Z,47.57
2018-11-07T19:36:54.716Z,44.07
2018-11-07T19:39:29.554Z,42.30
2018-11-07T19:42:02.080Z,40.23
2018-11-07T19:44:37.114Z,43.57
2018-11-07T19:47:10.625Z,41.10
2018-11-07T19:49:43.123Z,50.40
2018-11-07T19:52:25.766Z,42.33
2018-11-07T19:55:17.796Z,41.37
2018-11-07T19:58:04.444Z,41.00
2018-11-07T20:00:36.618Z,41.33
2018-11-07T20:03:09.641Z,47.17
2018-11-07T20:05:43.422Z,46.57
2018-11-07T20:08:15.860Z,44.53
2018-11-07T20:10:48.839Z,46.50
2018-11-07T20:13:21.337Z,42.97
2018-11-07T20:15:53.613Z,38.87
2018-11-07T20:18:25.942Z,40.43
2018-11-07T20:20:58.737Z,44.23
2018-11-07T20:23:31.023Z,43.87
2018-11-07T20:26:03.546Z,46.20
2018-11-07T20:29:06.185Z,46.67
2018-11-07T20:31:59.692Z,43.70
2018-11-07T20:34:35.005Z,41.70
2018-11-07T20:37:08.374Z,43.87
2018-11-07T20:42:49.721Z,41.77
2018-11-07T20:45:23.651Z,45.30
2018-11-07T20:47:55.902Z,49.40
2018-11-07T20:50:28.978Z,45.33
2018-11-07T20:53:02.118Z,45.43
2018-11-07T20:55:35.570Z,45.07
2018-11-07T20:58:11.534Z,49.90
2018-11-07T21:00:43.737Z,46.33
2018-11-07T21:03:15.909Z,43.77
2018-11-07T21:05:48.093Z,47.37
2018-11-07T21:08:20.878Z,49.60
2018-11-07T21:10:53.012Z,45.07
2018-11-07T21:13:25.624Z,49.27
2018-11-07T21:15:58.496Z,49.23
2018-11-07T21:18:30.654Z,47.13
2018-11-07T21:21:02.766Z,47.70
2018-11-07T21:23:36.640Z,51.60
2018-11-07T21:26:08.775Z,49.23
2018-11-07T21:28:40.730Z,44.73
2018-11-07T21:31:12.743Z,45.83
2018-11-07T21:33:46.766Z,46.87
2018-11-07T21:36:18.667Z,50.07
2018-11-07T21:38:50.776Z,49.37
2018-11-07T21:41:22.578Z,48.87
2018-11-07T21:43:54.825Z,46.53
2018-11-07T21:46:26.997Z,45.53
2018-11-07T21:48:59.091Z,45.90
2018-11-07T21:51:30.887Z,46.03
2018-11-07T21:54:02.975Z,49.20
2018-11-07T21:56:35.977Z,46.57
2018-11-07T21:59:09.265Z,49.60
2018-11-07T22:01:41.679Z,45.87
2018-11-07T22:04:14.426Z,50.37
2018-11-07T22:06:46.936Z,46.87
2018-11-07T22:09:19.199Z,50.93
2018-11-07T22:11:51.405Z,47.77
2018-11-07T22:14:23.803Z,45.53
2018-11-07T22:16:55.815Z,47.43
2018-11-07T22:19:27.731Z,47.80
2018-11-07T22:21:59.794Z,46.03
2018-11-07T22:24:31.820Z,52.37
2018-11-07T22:27:03.802Z,44.53
2018-11-07T22:29:36.288Z,45.67
2018-11-07T22:32:08.232Z,47.63
2018-11-07T22:34:41.180Z,50.03
2018-11-07T22:37:13.183Z,45.37
2018-11-07T22:39:45.146Z,48.10
2018-11-07T22:42:17.370Z,49.57
2018-11-07T22:44:50.132Z,51.23
2018-11-07T22:47:22.591Z,54.33
2018-11-07T22:49:54.736Z,47.70
2018-11-07T22:52:27.428Z,50.03
2018-11-07T22:54:59.684Z,50.70
2018-11-07T22:57:31.602Z,53.03
2018-11-07T23:00:03.566Z,50.53
2018-11-07T23:02:35.803Z,47.63
2018-11-07T23:05:08.372Z,53.67
2018-11-07T23:07:40.366Z,50.07
2018-11-07T23:10:12.850Z,51.30
2018-11-07T23:12:45.182Z,51.00
2018-11-07T23:15:21.979Z,51.37
2018-11-07T23:17:54.464Z,55.33
2018-11-07T23:20:26.590Z,50.30
2018-11-07T23:22:59.367Z,43.07
2018-11-07T23:25:32.130Z,49.37
2018-11-07T23:28:04.205Z,52.03
2018-11-07T23:30:36.723Z,50.53
2018-11-07T23:33:08.753Z,53.30
2018-11-07T23:35:40.798Z,54.50
2018-11-07T23:38:12.727Z,50.23
2018-11-07T23:40:46.127Z,49.23
2018-11-07T23:43:18.104Z,49.63
2018-11-07T23:45:51.056Z,54.83
2018-11-07T23:48:22.798Z,52.43
2018-11-07T23:50:54.740Z,48.60
2018-11-07T23:53:26.575Z,48.87
2018-11-07T23:55:58.513Z,49.33
2018-11-07T23:58:30.611Z,55.40
